createdAt,value
2019-03-15T00:00:09.145Z,12.0
2019-03-15T00:01:09.952Z,11.2
2019-03-15T00:02:10.643Z,16.1
2019-03-15T00:03:11.489Z,20.9
2019-03-15T00:04:12.216Z,16.6
2019-03-15T00:05:13.060Z,16.5
2019-03-15T00:06:13.770Z,16.0
2019-03-15T00:07:15.467Z,14.1
2019-03-15T00:08:15.281Z,17.3
2019-03-15T00:09:16.084Z,14.8
2019-03-15T00:10:16.898Z,14.9
2019-03-15T00:11:17.635Z,18.9
2019-03-15T00:12:18.357Z,14.9
2019-03-15T00:13:19.152Z,15.3
2019-03-15T00:14:19.880Z,22.7
2019-03-15T00:15:20.611Z,18.5
2019-03-15T00:16:21.341Z,14.8
2019-03-15T00:17:22.066Z,16.4
2019-03-15T00:18:22.798Z,15.5
2019-03-15T00:19:23.597Z,13.4
2019-03-15T00:20:24.374Z,12.5
2019-03-15T00:21:25.175Z,14.5
2019-03-15T00:22:25.994Z,14.0
2019-03-15T00:23:26.786Z,17.1
2019-03-15T00:24:27.545Z,15.6
2019-03-15T00:25:28.265Z,21.6
2019-03-15T00:26:29.062Z,16.8
2019-03-15T00:27:29.797Z,17.3
2019-03-15T00:28:30.622Z,11.4
2019-03-15T00:29:31.347Z,9.6
2019-03-15T00:30:32.143Z,15.0
2019-03-15T00:31:32.891Z,12.8
2019-03-15T00:32:33.639Z,12.9
2019-03-15T00:33:34.376Z,13.1
2019-03-15T00:34:35.101Z,17.9
2019-03-15T00:35:36.039Z,13.5
2019-03-15T00:36:36.723Z,12.9
2019-03-15T00:37:37.507Z,17.7
2019-03-15T00:38:38.270Z,16.5
2019-03-15T00:39:39.049Z,17.8
2019-03-15T00:40:39.877Z,18.7
2019-03-15T00:41:40.595Z,14.1
2019-03-15T00:42:41.316Z,13.5
2019-03-15T00:43:42.055Z,17.8
2019-03-15T00:44:42.736Z,15.8
2019-03-15T00:45:43.419Z,15.3
2019-03-15T00:46:44.100Z,17.2
2019-03-15T00:47:44.784Z,13.3
2019-03-15T00:48:45.513Z,13.3
2019-03-15T00:49:47.088Z,18.4
2019-03-15T00:50:46.957Z,12.2
2019-03-15T00:51:47.712Z,17.2
2019-03-15T00:52:48.448Z,17.9
2019-03-15T00:53:49.153Z,13.7
2019-03-15T00:54:49.877Z,18.9
2019-03-15T00:55:50.644Z,15.8
2019-03-15T00:56:51.438Z,22.1
2019-03-15T00:57:52.110Z,16.6
2019-03-15T00:58:52.823Z,13.2
2019-03-15T00:59:53.567Z,24.1
2019-03-15T01:00:54.337Z,14.0
2019-03-15T01:01:55.075Z,17.8
2019-03-15T01:02:55.796Z,17.7
2019-03-15T01:03:56.533Z,21.5
2019-03-15T01:04:57.316Z,14.3
2019-03-15T01:05:58.274Z,20.0
2019-03-15T01:06:59.059Z,19.0
2019-03-15T01:07:59.847Z,18.2
2019-03-15T01:09:00.617Z,30.1
2019-03-15T01:10:01.319Z,22.9
2019-03-15T01:11:02.113Z,21.2
2019-03-15T01:12:02.829Z,14.8
2019-03-15T01:13:03.562Z,17.8
2019-03-15T01:14:04.291Z,22.0
2019-03-15T01:15:05.025Z,22.8
2019-03-15T01:16:05.810Z,19.9
2019-03-15T01:17:06.535Z,23.4
2019-03-15T01:18:07.267Z,18.1
2019-03-15T01:19:08.005Z,17.8
2019-03-15T01:20:08.721Z,17.7
2019-03-15T01:21:09.549Z,15.9
2019-03-15T01:22:10.201Z,14.8
2019-03-15T01:23:10.916Z,18.3
2019-03-15T01:24:11.651Z,13.8
2019-03-15T01:25:12.364Z,14.6
2019-03-15T01:26:13.124Z,21.6
2019-03-15T01:27:13.853Z,21.3
2019-03-15T01:28:14.573Z,13.9
2019-03-15T01:29:15.287Z,22.0
2019-03-15T01:30:16.010Z,20.2
2019-03-15T01:31:16.788Z,20.7
2019-03-15T01:32:17.523Z,19.3
2019-03-15T01:33:18.242Z,19.7
2019-03-15T01:34:18.943Z,16.6
2019-03-15T01:35:19.686Z,18.0
2019-03-15T01:36:20.457Z,20.0
2019-03-15T01:37:21.185Z,17.7
2019-03-15T01:38:21.873Z,24.4
2019-03-15T01:39:22.586Z,22.0
2019-03-15T01:40:23.260Z,15.6
2019-03-15T01:41:24.038Z,17.5
2019-03-15T01:42:24.772Z,18.3
2019-03-15T01:43:25.510Z,11.9
2019-03-15T01:44:26.211Z,17.0
2019-03-15T01:45:26.900Z,19.7
2019-03-15T01:46:27.683Z,12.5
2019-03-15T01:47:28.414Z,21.9
2019-03-15T01:48:29.127Z,19.2
2019-03-15T01:49:29.838Z,23.0
2019-03-15T01:50:30.571Z,23.6
2019-03-15T01:51:31.368Z,19.5
2019-03-15T01:52:32.102Z,19.2
2019-03-15T01:53:32.822Z,11.5
2019-03-15T01:54:33.555Z,19.9
2019-03-15T01:55:34.290Z,17.5
2019-03-15T01:56:35.019Z,24.5
2019-03-15T01:57:35.713Z,20.6
2019-03-15T01:58:36.398Z,21.1
2019-03-15T01:59:37.080Z,26.5
2019-03-15T02:00:38.619Z,23.2
2019-03-15T02:01:38.488Z,21.2
2019-03-15T02:02:39.286Z,17.3
2019-03-15T02:03:40.112Z,25.4
2019-03-15T02:04:41.313Z,16.3
2019-03-15T02:05:42.107Z,20.7
2019-03-15T02:06:43.676Z,19.3
2019-03-15T02:07:43.803Z,16.5
2019-03-15T02:08:44.604Z,27.0
2019-03-15T02:09:45.399Z,20.7
2019-03-15T02:10:46.374Z,20.9
2019-03-15T02:13:02.707Z,12.9
2019-03-15T02:14:03.521Z,20.8
2019-03-15T02:15:04.348Z,28.3
2019-03-15T02:16:05.756Z,19.4
2019-03-15T02:17:06.826Z,20.6
2019-03-15T02:18:07.842Z,11.3
2019-03-15T02:19:08.969Z,20.5
2019-03-15T02:20:09.746Z,24.3
2019-03-15T02:21:10.542Z,25.7
2019-03-15T02:22:11.406Z,17.9
2019-03-15T02:23:12.218Z,18.8
2019-03-15T02:24:13.594Z,18.7
2019-03-15T02:25:14.310Z,19.1
2019-03-15T02:26:15.124Z,17.3
2019-03-15T02:27:15.953Z,20.0
2019-03-15T02:28:16.776Z,20.2
2019-03-15T02:29:17.737Z,19.9
2019-03-15T02:30:18.611Z,20.3
2019-03-15T02:31:20.821Z,22.5
2019-03-15T02:32:20.641Z,21.1
2019-03-15T02:33:21.465Z,19.5
2019-03-15T02:34:22.233Z,18.2
2019-03-15T02:35:23.223Z,20.8
2019-03-15T02:36:24.420Z,16.4
2019-03-15T02:38:40.701Z,18.2
2019-03-15T02:39:41.463Z,23.4
2019-03-15T02:40:42.219Z,26.9
2019-03-15T02:41:43.045Z,24.8
2019-03-15T02:42:44.714Z,15.2
2019-03-15T02:43:45.975Z,19.6
2019-03-15T02:44:46.315Z,16.9
2019-03-15T02:45:47.091Z,19.0
2019-03-15T02:46:48.152Z,24.8
2019-03-15T02:47:50.229Z,29.1
2019-03-15T02:48:51.256Z,16.7
2019-03-15T02:49:52.309Z,25.3
2019-03-15T02:50:53.087Z,18.8
2019-03-15T02:51:53.864Z,19.5
2019-03-15T02:52:54.728Z,11.0
2019-03-15T02:53:55.543Z,16.7
2019-03-15T02:54:56.674Z,18.2
2019-03-15T02:55:57.445Z,16.1
2019-03-15T02:56:58.203Z,15.6
2019-03-15T02:57:59.088Z,17.0
2019-03-15T02:59:00.444Z,21.0
2019-03-15T03:00:01.298Z,17.5
2019-03-15T03:01:02.077Z,16.0
2019-03-15T03:02:03.100Z,16.1
2019-03-15T03:03:03.959Z,20.0
2019-03-15T03:04:04.725Z,15.7
2019-03-15T03:05:05.499Z,21.1
2019-03-15T03:06:06.602Z,17.3
2019-03-15T03:07:07.760Z,21.4
2019-03-15T03:08:08.644Z,22.8
2019-03-15T03:09:09.737Z,15.8
2019-03-15T03:10:10.513Z,22.5
2019-03-15T03:11:11.794Z,17.4
2019-03-15T03:12:12.637Z,22.3
2019-03-15T03:13:13.749Z,18.4
2019-03-15T03:14:14.562Z,21.1
2019-03-15T03:15:15.390Z,16.0
2019-03-15T03:16:16.169Z,18.1
2019-03-15T03:17:17.516Z,15.8
2019-03-15T03:18:18.337Z,17.2
2019-03-15T03:19:19.158Z,19.2
2019-03-15T03:20:21.040Z,21.7
2019-03-15T03:21:21.018Z,17.0
2019-03-15T03:22:21.903Z,15.0
2019-03-15T03:23:22.688Z,19.9
2019-03-15T03:24:24.562Z,20.8
2019-03-15T03:25:24.465Z,21.1
2019-03-15T03:26:25.325Z,16.3
2019-03-15T03:27:26.147Z,24.7
2019-03-15T03:28:27.996Z,21.8
2019-03-15T03:29:28.104Z,14.4
2019-03-15T03:30:29.025Z,18.3
2019-03-15T03:31:30.081Z,15.7
2019-03-15T03:32:31.045Z,18.3
2019-03-15T03:33:31.730Z,15.3
2019-03-15T03:34:32.569Z,21.6
2019-03-15T03:35:33.691Z,12.6
2019-03-15T03:36:34.774Z,18.0
2019-03-15T03:37:35.935Z,13.0
2019-03-15T03:38:36.682Z,14.1
2019-03-15T03:39:37.703Z,18.0
2019-03-15T03:40:38.461Z,19.2
2019-03-15T03:41:39.612Z,18.9
2019-03-15T03:42:40.428Z,21.3
2019-03-15T03:43:41.258Z,12.7
2019-03-15T03:44:42.051Z,30.7
2019-03-15T03:45:43.269Z,19.7
2019-03-15T03:46:44.112Z,19.6
2019-03-15T03:47:45.348Z,15.7
2019-03-15T03:48:46.106Z,15.3
2019-03-15T03:49:46.882Z,17.7
2019-03-15T03:50:47.687Z,15.1
2019-03-15T03:51:48.459Z,27.8
2019-03-15T03:52:49.243Z,19.8
2019-03-15T03:53:50.278Z,13.5
2019-03-15T03:54:51.287Z,16.0
2019-03-15T03:55:52.296Z,20.5
2019-03-15T03:56:53.138Z,21.5
2019-03-15T03:57:54.378Z,23.3
2019-03-15T03:58:55.187Z,14.5
2019-03-15T03:59:56.550Z,16.4
2019-03-15T04:00:57.272Z,14.8
2019-03-15T04:01:58.130Z,18.7
2019-03-15T04:02:59.176Z,24.3
2019-03-15T04:04:00.017Z,13.0
2019-03-15T04:05:00.810Z,18.2
2019-03-15T04:06:01.751Z,18.1
2019-03-15T04:07:02.529Z,19.6
2019-03-15T04:08:03.389Z,15.1
2019-03-15T04:09:04.163Z,16.3
2019-03-15T04:10:06.302Z,20.0
2019-03-15T04:11:07.120Z,19.9
2019-03-15T04:12:07.871Z,15.0
2019-03-15T04:13:08.660Z,16.9
2019-03-15T04:14:10.024Z,17.4
2019-03-15T04:15:11.835Z,15.1
2019-03-15T04:16:12.848Z,14.0
2019-03-15T04:17:13.674Z,14.2
2019-03-15T04:18:14.456Z,22.4
2019-03-15T04:19:16.176Z,17.1
2019-03-15T04:20:17.155Z,20.0
2019-03-15T04:21:17.675Z,18.2
2019-03-15T04:22:18.481Z,16.5
2019-03-15T04:23:19.260Z,20.5
2019-03-15T04:24:20.120Z,19.8
2019-03-15T04:25:20.888Z,16.1
2019-03-15T04:26:23.165Z,10.6
2019-03-15T04:27:24.159Z,16.7
2019-03-15T04:28:24.979Z,20.8
2019-03-15T04:29:26.144Z,15.7
2019-03-15T04:30:27.218Z,18.0
2019-03-15T04:31:28.068Z,15.9
2019-03-15T04:32:28.995Z,13.9
2019-03-15T04:33:29.791Z,12.6
2019-03-15T04:34:30.943Z,18.5
2019-03-15T04:35:31.684Z,14.3
2019-03-15T04:36:32.465Z,11.7
2019-03-15T04:37:33.531Z,16.9
2019-03-15T04:38:34.585Z,17.0
2019-03-15T04:39:35.650Z,14.8
2019-03-15T04:40:36.444Z,18.2
2019-03-15T04:41:37.604Z,13.5
2019-03-15T04:42:38.443Z,11.3
2019-03-15T04:43:39.603Z,14.8
2019-03-15T04:44:40.630Z,11.9
2019-03-15T04:45:41.296Z,14.7
2019-03-15T04:46:42.037Z,24.5
2019-03-15T04:47:43.706Z,13.6
2019-03-15T04:48:43.639Z,21.0
2019-03-15T04:49:44.451Z,15.9
2019-03-15T04:50:45.510Z,19.2
2019-03-15T04:51:46.344Z,14.6
2019-03-15T04:52:47.126Z,17.9
2019-03-15T04:53:47.979Z,14.6
2019-03-15T04:54:49.162Z,7.9
2019-03-15T04:55:50.003Z,18.2
2019-03-15T04:56:51.103Z,21.4
2019-03-15T04:57:51.910Z,17.1
2019-03-15T04:58:52.770Z,13.2
2019-03-15T04:59:53.628Z,10.9
2019-03-15T05:00:54.413Z,13.3
2019-03-15T05:01:55.205Z,14.3
2019-03-15T05:02:56.203Z,15.7
2019-03-15T05:03:56.995Z,12.5
2019-03-15T05:05:00.289Z,13.8
2019-03-15T05:06:03.480Z,10.7
2019-03-15T05:07:01.022Z,22.2
2019-03-15T05:08:01.760Z,20.4
2019-03-15T05:09:02.582Z,13.4
2019-03-15T05:10:03.510Z,12.4
2019-03-15T05:11:04.318Z,12.7
2019-03-15T05:12:05.135Z,14.0
2019-03-15T05:13:06.155Z,14.5
2019-03-15T05:14:06.974Z,19.5
2019-03-15T05:15:07.822Z,12.6
2019-03-15T05:16:08.901Z,14.7
2019-03-15T05:17:09.703Z,15.8
2019-03-15T05:18:10.683Z,14.3
2019-03-15T05:19:11.531Z,13.5
2019-03-15T05:20:12.716Z,10.4
2019-03-15T05:21:13.661Z,16.8
2019-03-15T05:22:14.406Z,17.1
2019-03-15T05:23:15.541Z,13.3
2019-03-15T05:24:16.406Z,13.9
2019-03-15T05:25:17.294Z,13.7
2019-03-15T05:26:18.706Z,12.9
2019-03-15T05:27:19.556Z,16.4
2019-03-15T05:28:20.372Z,16.6
2019-03-15T05:29:21.559Z,20.7
2019-03-15T05:30:23.349Z,12.2
2019-03-15T05:31:25.055Z,15.8
2019-03-15T05:32:26.212Z,15.5
2019-03-15T05:33:27.021Z,14.5
2019-03-15T05:34:27.746Z,11.6
2019-03-15T05:35:28.575Z,16.1
2019-03-15T05:36:29.634Z,16.3
2019-03-15T05:37:31.657Z,14.1
2019-03-15T05:38:34.802Z,14.0
2019-03-15T05:39:33.221Z,22.7
2019-03-15T05:40:34.039Z,17.2
2019-03-15T05:41:34.809Z,12.9
2019-03-15T05:42:35.630Z,14.6
2019-03-15T05:43:36.781Z,18.7
2019-03-15T05:44:37.582Z,16.5
2019-03-15T05:45:38.585Z,16.5
2019-03-15T05:46:39.319Z,17.2
2019-03-15T05:47:40.141Z,9.0
2019-03-15T05:48:41.663Z,14.9
2019-03-15T05:49:42.697Z,15.2
2019-03-15T05:50:43.545Z,14.1
2019-03-15T05:51:44.753Z,11.0
2019-03-15T05:52:45.876Z,14.0
2019-03-15T05:53:46.625Z,16.3
2019-03-15T05:54:47.828Z,9.4
2019-03-15T05:55:48.624Z,17.7
2019-03-15T05:56:49.479Z,17.7
2019-03-15T05:57:50.213Z,13.3
2019-03-15T05:58:51.192Z,9.9
2019-03-15T05:59:51.984Z,18.3
2019-03-15T06:00:52.928Z,18.7
2019-03-15T06:01:53.718Z,18.2
2019-03-15T06:02:54.599Z,16.9
2019-03-15T06:03:55.401Z,12.0
2019-03-15T06:04:56.208Z,14.8
2019-03-15T06:05:57.015Z,13.3
2019-03-15T06:06:57.853Z,17.3
2019-03-15T06:07:58.964Z,20.9
2019-03-15T06:08:59.654Z,14.1
2019-03-15T06:10:00.396Z,11.9
2019-03-15T06:11:01.007Z,13.1
2019-03-15T06:12:01.688Z,12.0
2019-03-15T06:13:02.374Z,18.9
2019-03-15T06:14:03.052Z,14.3
2019-03-15T06:15:03.738Z,12.6
2019-03-15T06:16:04.427Z,17.0
2019-03-15T06:17:05.109Z,13.3
2019-03-15T06:18:06.961Z,16.5
2019-03-15T06:19:06.482Z,13.2
2019-03-15T06:20:07.165Z,18.7
2019-03-15T06:21:07.853Z,13.8
2019-03-15T06:22:08.536Z,16.2
2019-03-15T06:23:09.225Z,15.1
2019-03-15T06:24:09.989Z,14.4
2019-03-15T06:25:10.595Z,12.6
2019-03-15T06:26:11.283Z,11.5
2019-03-15T06:27:11.965Z,12.6
2019-03-15T06:28:12.649Z,16.8
2019-03-15T06:29:13.337Z,14.1
2019-03-15T06:30:14.025Z,11.4
2019-03-15T06:31:14.709Z,13.2
2019-03-15T06:32:15.404Z,13.6
2019-03-15T06:33:16.077Z,10.7
2019-03-15T06:34:16.767Z,15.9
2019-03-15T06:35:17.452Z,14.2
2019-03-15T06:36:18.138Z,8.3
2019-03-15T06:37:18.837Z,15.0
2019-03-15T06:38:19.518Z,12.7
2019-03-15T06:39:20.210Z,11.2
2019-03-15T06:40:20.864Z,19.2
2019-03-15T06:41:21.550Z,14.3
2019-03-15T06:42:22.234Z,12.3
2019-03-15T06:43:22.927Z,14.3
2019-03-15T06:44:23.631Z,13.2
2019-03-15T06:45:24.299Z,20.0
2019-03-15T06:46:24.988Z,16.9
2019-03-15T06:47:25.672Z,13.9
2019-03-15T06:48:26.367Z,16.9
2019-03-15T06:49:27.045Z,11.2
2019-03-15T06:50:27.733Z,11.2
2019-03-15T06:51:28.415Z,14.1
2019-03-15T06:52:29.103Z,13.4
2019-03-15T06:53:29.805Z,16.1
2019-03-15T06:54:30.475Z,12.8
2019-03-15T06:55:31.166Z,15.6
2019-03-15T06:56:31.850Z,13.8
2019-03-15T06:57:32.537Z,19.1
2019-03-15T06:58:33.228Z,10.0
2019-03-15T06:59:33.917Z,16.4
2019-03-15T07:00:34.603Z,18.0
2019-03-15T07:01:35.287Z,13.6
2019-03-15T07:02:35.978Z,14.0
2019-03-15T07:03:36.666Z,10.7
2019-03-15T07:04:37.352Z,17.4
2019-03-15T07:05:38.039Z,11.2
2019-03-15T07:06:38.722Z,16.0
2019-03-15T07:07:39.411Z,12.3
2019-03-15T07:08:40.116Z,15.4
2019-03-15T07:09:40.804Z,15.7
2019-03-15T07:10:43.990Z,16.2
2019-03-15T07:11:42.169Z,20.8
2019-03-15T07:12:42.857Z,13.5
2019-03-15T07:13:43.550Z,16.5
2019-03-15T07:14:44.231Z,14.4
2019-03-15T07:15:44.917Z,14.9
2019-03-15T07:16:45.601Z,17.2
2019-03-15T07:17:46.289Z,9.8
2019-03-15T07:18:46.980Z,9.5
2019-03-15T07:19:47.673Z,17.8
2019-03-15T07:20:48.357Z,28.7
2019-03-15T07:21:49.552Z,15.6
2019-03-15T07:22:49.726Z,13.5
2019-03-15T07:23:50.410Z,15.4
2019-03-15T07:24:51.099Z,12.1
2019-03-15T07:25:51.789Z,15.7
2019-03-15T07:26:52.476Z,11.9
2019-03-15T07:27:53.160Z,15.3
2019-03-15T07:28:53.880Z,16.6
2019-03-15T07:29:54.577Z,13.5
2019-03-15T07:30:55.256Z,18.0
2019-03-15T07:31:55.951Z,15.2
2019-03-15T07:32:56.765Z,14.3
2019-03-15T07:33:57.312Z,17.1
2019-03-15T07:34:58.033Z,16.6
2019-03-15T07:35:59.579Z,16.3
2019-03-15T07:36:59.395Z,16.5
2019-03-15T07:38:00.080Z,14.4
2019-03-15T07:39:00.764Z,13.5
2019-03-15T07:40:01.449Z,15.4
2019-03-15T07:41:02.137Z,17.7
2019-03-15T07:42:02.826Z,16.7
2019-03-15T07:43:05.189Z,16.2
2019-03-15T07:44:04.285Z,21.3
2019-03-15T07:45:04.877Z,17.9
2019-03-15T07:46:05.566Z,22.7
2019-03-15T07:47:06.262Z,19.2
2019-03-15T07:48:06.945Z,16.4
2019-03-15T07:49:07.625Z,15.3
2019-03-15T07:50:08.312Z,12.8
2019-03-15T07:51:08.998Z,22.6
2019-03-15T07:52:09.683Z,16.7
2019-03-15T07:53:10.374Z,21.7
2019-03-15T07:54:11.054Z,22.5
2019-03-15T07:55:11.720Z,16.0
2019-03-15T07:56:12.411Z,29.6
2019-03-15T07:57:13.121Z,23.5
2019-03-15T07:58:13.806Z,15.1
2019-03-15T07:59:14.496Z,20.6
2019-03-15T08:00:15.186Z,21.4
2019-03-15T08:01:15.877Z,21.4
2019-03-15T08:02:16.555Z,23.7
2019-03-15T08:03:17.245Z,16.7
2019-03-15T08:04:17.938Z,28.6
2019-03-15T08:05:18.619Z,20.3
2019-03-15T08:06:19.795Z,20.0
2019-03-15T08:07:20.371Z,17.3
2019-03-15T08:08:20.674Z,22.1
2019-03-15T08:09:21.365Z,25.7
2019-03-15T08:10:22.051Z,22.6
2019-03-15T08:11:22.743Z,22.6
2019-03-15T08:12:23.423Z,24.7
2019-03-15T08:13:24.109Z,19.7
2019-03-15T08:14:24.799Z,21.5
2019-03-15T08:15:25.490Z,30.3
2019-03-15T08:16:26.177Z,25.3
2019-03-15T08:17:26.867Z,22.4
2019-03-15T08:18:27.553Z,25.7
2019-03-15T08:19:28.235Z,23.7
2019-03-15T08:20:28.925Z,23.2
2019-03-15T08:21:29.606Z,20.5
2019-03-15T08:22:30.293Z,25.6
2019-03-15T08:23:30.986Z,27.7
2019-03-15T08:24:31.668Z,22.1
2019-03-15T08:25:32.354Z,23.8
2019-03-15T08:26:33.044Z,24.8
2019-03-15T08:27:33.734Z,27.8
2019-03-15T08:28:34.417Z,21.7
2019-03-15T08:29:35.096Z,17.9
2019-03-15T08:30:35.783Z,24.2
2019-03-15T08:31:36.470Z,31.0
2019-03-15T08:32:37.159Z,24.6
2019-03-15T08:33:37.851Z,26.6
2019-03-15T08:34:38.539Z,26.9
2019-03-15T08:35:39.240Z,25.5
2019-03-15T08:36:39.916Z,35.2
2019-03-15T08:37:40.602Z,32.8
2019-03-15T08:38:47.236Z,24.7
2019-03-15T08:39:41.980Z,24.8
2019-03-15T08:40:42.678Z,27.3
2019-03-15T08:41:43.354Z,25.8
2019-03-15T08:42:44.051Z,26.0
2019-03-15T08:43:46.046Z,24.0
2019-03-15T08:44:45.414Z,21.6
2019-03-15T08:45:46.098Z,27.2
2019-03-15T08:46:46.788Z,22.6
2019-03-15T08:47:47.477Z,23.4
2019-03-15T08:48:48.166Z,24.7
2019-03-15T08:49:48.907Z,32.6
2019-03-15T08:50:49.696Z,28.6
2019-03-15T08:52:03.105Z,24.4
2019-03-15T08:52:53.931Z,19.7
2019-03-15T08:53:51.638Z,18.6
2019-03-15T08:55:04.686Z,29.9
2019-03-15T08:55:53.008Z,22.3
2019-03-15T08:56:53.690Z,23.3
2019-03-15T08:57:54.383Z,29.1
2019-03-15T08:58:55.068Z,28.1
2019-03-15T08:59:57.743Z,25.7
2019-03-15T09:00:56.437Z,27.1
2019-03-15T09:01:57.134Z,21.5
2019-03-15T09:02:57.826Z,32.0
2019-03-15T09:03:58.590Z,27.1
2019-03-15T09:04:59.201Z,30.6
2019-03-15T09:05:59.882Z,31.2
2019-03-15T09:07:00.569Z,22.4
2019-03-15T09:08:01.253Z,23.3
2019-03-15T09:09:01.945Z,22.3
2019-03-15T09:10:03.669Z,28.1
2019-03-15T09:11:03.313Z,26.1
2019-03-15T09:12:03.995Z,22.3
2019-03-15T09:13:04.681Z,18.9
2019-03-15T09:14:05.368Z,22.7
2019-03-15T09:15:06.053Z,21.4
2019-03-15T09:16:06.740Z,24.9
2019-03-15T09:17:07.430Z,26.2
2019-03-15T09:18:08.124Z,28.5
2019-03-15T09:19:08.807Z,27.8
2019-03-15T09:20:09.502Z,23.2
2019-03-15T09:21:10.182Z,32.2
2019-03-15T09:22:10.872Z,21.9
2019-03-15T09:23:11.559Z,20.2
2019-03-15T09:24:12.255Z,28.3
2019-03-15T09:25:19.391Z,29.5
2019-03-15T09:26:13.620Z,28.4
2019-03-15T09:27:14.314Z,21.7
2019-03-15T09:28:15.036Z,25.1
2019-03-15T09:29:15.709Z,23.0
2019-03-15T09:30:23.475Z,24.3
2019-03-15T09:31:18.036Z,24.0
2019-03-15T09:32:18.721Z,20.0
2019-03-15T09:33:19.414Z,19.8
2019-03-15T09:34:20.091Z,24.3
2019-03-15T09:35:20.799Z,26.1
2019-03-15T09:36:21.470Z,25.7
2019-03-15T09:37:22.154Z,27.1
2019-03-15T09:38:22.840Z,25.9
2019-03-15T09:39:23.525Z,25.5
2019-03-15T09:40:25.901Z,22.1
2019-03-15T09:41:31.986Z,24.9
2019-03-15T09:42:25.577Z,28.1
2019-03-15T09:43:26.263Z,21.8
2019-03-15T09:44:26.963Z,24.4
2019-03-15T09:45:27.644Z,27.3
2019-03-15T09:46:28.320Z,24.2
2019-03-15T09:47:29.009Z,30.7
2019-03-15T09:48:29.693Z,21.1
2019-03-15T09:49:30.376Z,27.9
2019-03-15T09:50:36.307Z,31.4
2019-03-15T09:51:31.776Z,21.5
2019-03-15T09:52:32.464Z,23.1
2019-03-15T09:53:33.151Z,29.4
2019-03-15T09:54:33.832Z,20.9
2019-03-15T09:55:34.527Z,23.9
2019-03-15T09:56:35.210Z,28.3
2019-03-15T09:57:36.035Z,21.9
2019-03-15T09:58:36.734Z,26.0
2019-03-15T09:59:37.481Z,30.4
2019-03-15T10:00:38.167Z,28.6
2019-03-15T10:01:38.858Z,24.3
2019-03-15T10:02:39.554Z,24.7
2019-03-15T10:03:40.239Z,20.6
2019-03-15T10:04:40.927Z,27.0
2019-03-15T10:05:41.612Z,31.8
2019-03-15T10:06:42.299Z,22.8
2019-03-15T10:07:43.738Z,25.0
2019-03-15T10:08:43.666Z,20.7
2019-03-15T10:09:46.173Z,23.5
2019-03-15T10:10:45.036Z,23.6
2019-03-15T10:11:45.725Z,23.0
2019-03-15T10:12:46.413Z,20.3
2019-03-15T10:13:47.098Z,19.6
2019-03-15T10:14:47.796Z,21.6
2019-03-15T10:15:48.651Z,21.2
2019-03-15T10:16:49.163Z,24.5
2019-03-15T10:17:49.845Z,22.1
2019-03-15T10:18:50.719Z,19.2
2019-03-15T10:19:51.362Z,15.7
2019-03-15T10:20:52.027Z,18.0
2019-03-15T10:21:52.718Z,19.9
2019-03-15T10:23:05.210Z,16.1
2019-03-15T10:23:54.092Z,19.1
2019-03-15T10:24:54.780Z,19.6
2019-03-15T10:25:55.471Z,14.9
2019-03-15T10:26:56.161Z,14.8
2019-03-15T10:27:56.846Z,17.5
2019-03-15T10:28:57.634Z,14.2
2019-03-15T10:29:58.218Z,20.0
2019-03-15T10:30:58.907Z,12.6
2019-03-15T10:31:59.589Z,15.6
2019-03-15T10:33:00.276Z,13.0
2019-03-15T10:34:00.964Z,16.6
2019-03-15T10:35:01.662Z,14.3
2019-03-15T10:36:02.335Z,13.0
2019-03-15T10:37:06.023Z,11.8
2019-03-15T10:38:03.703Z,12.2
2019-03-15T10:39:04.397Z,11.2
2019-03-15T10:40:05.075Z,14.5
2019-03-15T10:41:05.763Z,13.2
2019-03-15T10:42:06.451Z,11.1
2019-03-15T10:43:07.144Z,11.6
2019-03-15T10:44:07.846Z,12.5
2019-03-15T10:45:08.517Z,15.9
2019-03-15T10:46:09.205Z,10.1
2019-03-15T10:47:09.896Z,10.5
2019-03-15T10:48:24.249Z,10.7
2019-03-15T10:49:11.262Z,11.5
2019-03-15T10:50:11.954Z,12.4
2019-03-15T10:51:12.632Z,11.3
2019-03-15T10:52:13.324Z,11.3
2019-03-15T10:53:14.008Z,10.8
2019-03-15T10:54:14.700Z,10.6
2019-03-15T10:55:15.387Z,10.3
2019-03-15T10:56:16.076Z,9.8
2019-03-15T10:57:16.762Z,10.0
2019-03-15T10:58:17.419Z,10.6
2019-03-15T10:59:18.112Z,10.3
2019-03-15T11:00:18.795Z,10.4
2019-03-15T11:01:19.515Z,10.5
2019-03-15T11:02:20.187Z,10.1
2019-03-15T11:03:20.881Z,10.4
2019-03-15T11:04:21.575Z,10.2
2019-03-15T11:05:22.256Z,10.0
2019-03-15T11:06:22.943Z,10.5
2019-03-15T11:07:23.626Z,11.6
2019-03-15T11:08:24.425Z,11.6
2019-03-15T11:09:25.002Z,11.3
2019-03-15T11:10:25.689Z,11.4
2019-03-15T11:11:26.374Z,10.5
2019-03-15T11:12:27.060Z,10.7
2019-03-15T11:13:27.749Z,11.1
2019-03-15T11:14:28.449Z,11.1
2019-03-15T11:15:29.126Z,12.1
2019-03-15T11:16:29.818Z,12.1
2019-03-15T11:17:30.497Z,12.9
2019-03-15T11:18:31.185Z,11.5
2019-03-15T11:19:31.873Z,11.1
2019-03-15T11:20:32.569Z,12.4
2019-03-15T11:21:33.264Z,12.0
2019-03-15T11:22:33.942Z,12.8
2019-03-15T11:23:34.640Z,13.3
2019-03-15T11:24:35.322Z,13.0
2019-03-15T11:25:36.008Z,12.5
2019-03-15T11:26:36.700Z,11.9
2019-03-15T11:27:37.385Z,12.7
2019-03-15T11:28:38.071Z,13.2
2019-03-15T11:29:38.758Z,14.0
2019-03-15T11:30:39.445Z,12.8
2019-03-15T11:31:40.132Z,12.0
2019-03-15T11:32:40.823Z,13.1
2019-03-15T11:33:41.522Z,14.1
2019-03-15T11:34:42.203Z,13.7
2019-03-15T11:35:42.886Z,12.9
2019-03-15T11:36:43.579Z,13.1
2019-03-15T11:37:44.258Z,13.6
2019-03-15T11:38:44.986Z,12.5
2019-03-15T11:39:45.677Z,12.7
2019-03-15T11:40:46.385Z,13.2
2019-03-15T11:41:47.058Z,12.8
2019-03-15T11:42:47.751Z,12.9
2019-03-15T11:43:48.449Z,12.3
2019-03-15T11:44:49.140Z,12.3
2019-03-15T11:45:49.822Z,12.2
2019-03-15T11:46:50.517Z,12.1
2019-03-15T11:48:03.175Z,12.0
2019-03-15T11:48:51.934Z,11.8
2019-03-15T11:49:52.649Z,12.0
2019-03-15T11:50:53.339Z,12.0
2019-03-15T11:51:54.032Z,12.6
2019-03-15T11:52:54.720Z,11.8
2019-03-15T11:53:55.425Z,12.3
2019-03-15T11:54:56.104Z,11.3
2019-03-15T11:55:56.799Z,10.4
2019-03-15T11:56:57.479Z,12.2
2019-03-15T11:57:58.134Z,12.1
2019-03-15T11:58:58.823Z,11.5
2019-03-15T11:59:59.483Z,10.6
2019-03-15T12:01:00.179Z,11.2
2019-03-15T12:02:04.161Z,10.1
2019-03-15T12:03:01.546Z,10.6
2019-03-15T12:04:02.233Z,10.7
2019-03-15T12:05:02.945Z,10.8
2019-03-15T12:06:03.647Z,10.0
2019-03-15T12:07:04.327Z,11.1
2019-03-15T12:08:05.015Z,10.5
2019-03-15T12:09:05.702Z,10.0
2019-03-15T12:10:06.406Z,9.4
2019-03-15T12:11:07.081Z,9.7
2019-03-15T12:12:07.767Z,8.5
2019-03-15T12:13:08.452Z,8.1
2019-03-15T12:14:09.143Z,7.8
2019-03-15T12:15:09.836Z,8.2
2019-03-15T12:16:10.546Z,7.9
2019-03-15T12:17:11.237Z,7.1
2019-03-15T12:18:11.918Z,6.6
2019-03-15T12:19:12.608Z,6.5
2019-03-15T12:20:13.269Z,6.6
2019-03-15T12:21:13.950Z,6.6
2019-03-15T12:22:14.609Z,6.2
2019-03-15T12:23:15.298Z,5.5
2019-03-15T12:24:15.984Z,5.4
2019-03-15T12:25:16.672Z,5.4
2019-03-15T12:26:17.361Z,5.0
2019-03-15T12:27:18.115Z,5.2
2019-03-15T12:28:18.826Z,5.1
2019-03-15T12:29:19.491Z,5.4
2019-03-15T12:30:20.176Z,4.8
2019-03-15T12:31:20.862Z,4.5
2019-03-15T12:32:23.736Z,5.2
2019-03-15T12:33:22.232Z,4.3
2019-03-15T12:34:22.929Z,4.5
2019-03-15T12:35:23.634Z,4.3
2019-03-15T12:36:24.317Z,4.1
2019-03-15T12:37:25.010Z,4.3
2019-03-15T12:38:25.702Z,4.5
2019-03-15T12:39:26.408Z,5.8
2019-03-15T12:40:27.098Z,3.6
2019-03-15T12:41:27.790Z,5.7
2019-03-15T12:42:28.478Z,4.5
2019-03-15T12:43:29.181Z,4.0
2019-03-15T12:44:29.876Z,4.9
2019-03-15T12:45:30.561Z,5.5
2019-03-15T12:46:31.268Z,6.3
2019-03-15T12:47:31.947Z,4.6
2019-03-15T12:48:32.640Z,4.0
2019-03-15T12:49:33.363Z,3.6
2019-03-15T12:50:34.097Z,3.2
2019-03-15T12:51:34.798Z,3.8
2019-03-15T12:52:46.342Z,3.9
2019-03-15T12:53:36.171Z,4.8
2019-03-15T12:54:36.864Z,3.2
2019-03-15T12:55:37.554Z,3.2
2019-03-15T12:56:38.258Z,5.3
2019-03-15T12:57:38.945Z,3.7
2019-03-15T12:58:39.640Z,4.7
2019-03-15T12:59:40.338Z,4.4
2019-03-15T13:00:41.038Z,6.8
2019-03-15T13:01:41.737Z,4.9
2019-03-15T13:02:45.446Z,4.9
2019-03-15T13:03:46.141Z,6.9
2019-03-15T13:04:46.781Z,4.5
2019-03-15T13:05:47.481Z,6.5
2019-03-15T13:06:48.163Z,6.4
2019-03-15T13:07:48.861Z,5.1
2019-03-15T13:08:49.543Z,6.3
2019-03-15T13:09:50.233Z,4.8
2019-03-15T13:10:50.921Z,6.5
2019-03-15T13:11:51.610Z,5.9
2019-03-15T13:12:52.316Z,6.4
2019-03-15T13:13:52.999Z,8.9
2019-03-15T13:14:53.696Z,5.1
2019-03-15T13:15:54.355Z,3.8
2019-03-15T13:16:55.050Z,5.1
2019-03-15T13:17:55.740Z,7.4
2019-03-15T13:18:56.432Z,7.4
2019-03-15T13:19:57.131Z,7.1
2019-03-15T13:20:57.813Z,5.6
2019-03-15T13:21:58.509Z,9.3
2019-03-15T13:22:59.201Z,9.6
2019-03-15T13:23:59.892Z,5.4
2019-03-15T13:25:00.602Z,13.6
2019-03-15T13:26:01.276Z,11.5
2019-03-15T13:27:07.500Z,7.3
2019-03-15T13:28:02.717Z,11.3
2019-03-15T13:29:03.353Z,13.7
2019-03-15T13:30:04.044Z,11.5
2019-03-15T13:31:04.731Z,8.6
2019-03-15T13:32:05.414Z,8.9
2019-03-15T13:33:19.300Z,11.7
2019-03-15T13:34:06.792Z,8.2